Terminal Aerodrome Forecast
Issued by NWS

Home | Current Version | Previous Version | Text Only | Print | Product List | Glossary On
Versions: 1 2 3 4 5 6 7 8 9 10 11 12 13 14 15 16 17 18 19 20 21 22 23 24 25 26 27 28 29
000
FTUS43 KDTX 291120
TAFPTK
TAF
KPTK 291120Z 2912/3012 16011KT P6SM BKN045 OVC070
      TEMPO 2912/2914 6SM -SNPL OVC035
     FM291600 21010KT 4SM -SN BR SCT018 OVC028
     FM291900 29012G18KT 2SM -SHSN BR BKN009 OVC022
     FM292200 30013G20KT 6SM -SN BKN018 OVC035
     FM300200 31015G24KT P6SM SCT025 OVC040=

USA.gov is the U.S. government's official web portal to all federal, state and local government web resources and services.